KBDL/BDL METAR and TAF weather

Enter ICAO airport designator
Station Type Date Time Source
KBDL METAR 2021/04/13 21:51 UTC NOAA

KBDL 132151Z 33003KT 10SM BKN055 BKN090 18/04 A2999 RMK AO2 SLP156 T01780044


Station Type Date Time Source
KBDL Decoded METAR 2021/04/13 21:51 UTC NOAA

BRADLEY INTERNATIONAL AIRPORT , CT, United States (KBDL) 41-56N 072-41W 60M
Apr 13, 2021 - 05:51 PM EDT / 2021.04.13 2151 UTC
Wind: from the NNW (330 degrees) at 3 MPH (3 KT):0
Visibility: 10 mile(s):0
Sky conditions: mostly cloudy
Temperature: 64.0 F (17.8 C)
Dew Point: 39.9 F (4.4 C)
Relative Humidity: 41%
Pressure (altimeter): 29.99 in. Hg (1015 hPa)
ob: KBDL 132151Z 33003KT 10SM BKN055 BKN090 18/04 A2999 RMK AO2 SLP156 T01780044
cycle: 22

Station Type Date Time Source
KBDL TAF 2021/04/13 20:12 UTC NOAA

TAF
AMD KBDL 132011Z 1320/1424 02005KT P6SM BKN050
FM140000 17003KT P6SM SCT060
FM141000 00000KT P6SM BKN070
FM141500 06003KT P6SM FEW150
FM141900 14005KT P6SM SCT060
FM142000 17007KT P6SM BKN050

Example: see airport list